Time;durP1;ratioP1;P1;durP2;ratioP2;P2;SDS_P1;SDS_P2;PMS_P1;PMS_P2;Temp;Humidity;BMP_temperature;BMP_pressure;BME280_temperature;BME280_humidity;BME280_pressure;Samples;Min_cycle;Max_cycle;Signal;HPM_P1;HPM_P2
2022/06/21 00:01:27;;;;;;;22.58;8.13;;;;;;;11.04;100.00;101684.47;5216188;28;20033;-71
2022/06/21 00:03:58;;;;;;;16.08;6.18;;;;;;;11.07;100.00;101692.22;5203907;28;20379;-72
2022/06/21 00:06:28;;;;;;;14.13;6.60;;;;;;;11.10;100.00;101688.41;5210811;28;20035;-71
2022/06/21 00:08:59;;;;;;;21.67;7.28;;;;;;;11.11;100.00;101688.25;5222658;28;20017;-71
2022/06/21 00:11:33;;;;;;;17.08;6.72;;;;;;;11.08;100.00;101680.50;5223497;28;20017;-71
2022/06/21 00:14:03;;;;;;;18.30;7.63;;;;;;;11.06;100.00;101681.66;5220726;28;20056;-71
2022/06/21 00:16:35;;;;;;;16.48;8.00;;;;;;;11.02;100.00;101681.09;5212667;28;20037;-71
2022/06/21 00:19:06;;;;;;;14.32;7.50;;;;;;;10.97;100.00;101680.69;5207010;28;20025;-71
2022/06/21 00:21:39;;;;;;;18.00;7.72;;;;;;;10.90;100.00;101684.97;5214766;28;20087;-72
2022/06/21 00:24:10;;;;;;;14.07;6.85;;;;;;;10.82;100.00;101671.44;5214301;28;20422;-70
2022/06/21 00:26:41;;;;;;;16.65;7.10;;;;;;;10.79;100.00;101672.59;5215637;28;20486;-70
2022/06/21 00:29:12;;;;;;;12.00;7.55;;;;;;;10.76;100.00;101666.66;5204631;28;20075;-70
2022/06/21 00:31:58;;;;;;;13.43;7.72;;;;;;;10.66;100.00;101668.53;5217002;28;20098;-71
2022/06/21 00:34:29;;;;;;;16.55;8.02;;;;;;;10.55;100.00;101669.56;5213922;28;20115;-70
2022/06/21 00:37:00;;;;;;;19.13;8.00;;;;;;;10.45;100.00;101669.59;5203582;28;20151;-71
2022/06/21 00:39:30;;;;;;;19.63;8.43;;;;;;;10.37;100.00;101659.59;5205476;28;20474;-71
2022/06/21 00:42:12;;;;;;;19.15;8.63;;;;;;;10.29;100.00;101653.25;5216295;28;20029;-71
2022/06/21 00:44:48;;;;;;;16.55;7.10;;;;;;;10.27;100.00;101661.44;5212781;28;20028;-71
2022/06/21 00:47:25;;;;;;;20.85;7.35;;;;;;;10.26;100.00;101669.63;5213159;28;20029;-72
2022/06/21 00:49:58;;;;;;;19.15;7.55;;;;;;;10.20;100.00;101679.06;5207066;28;20027;-71
2022/06/21 00:52:42;;;;;;;19.88;8.55;;;;;;;10.11;100.00;101674.56;5218034;28;20106;-70
2022/06/21 00:55:23;;;;;;;19.77;8.25;;;;;;;10.06;100.00;101674.16;5204819;28;20022;-71
2022/06/21 00:57:55;;;;;;;16.02;7.97;;;;;;;10.01;100.00;101679.94;5210431;28;20021;-71
2022/06/21 01:00:52;;;;;;;11.02;6.88;;;;;;;10.01;100.00;101673.72;5214907;28;20029;-71
2022/06/21 01:03:26;;;;;;;20.45;7.78;;;;;;;10.03;100.00;101675.28;5216943;28;20025;-71
2022/06/21 01:06:02;;;;;;;17.55;8.20;;;;;;;9.99;100.00;101664.97;5218199;28;20097;-71
2022/06/21 01:08:40;;;;;;;17.48;8.10;;;;;;;9.88;100.00;101678.53;5213068;28;20116;-71
2022/06/21 01:11:14;;;;;;;16.90;8.57;;;;;;;9.74;100.00;101669.06;5212227;28;20036;-71
2022/06/21 01:13:50;;;;;;;16.42;7.63;;;;;;;9.63;100.00;101666.53;5216067;28;20017;-71
2022/06/21 01:16:23;;;;;;;11.93;7.78;;;;;;;9.64;100.00;101665.53;5214045;28;20033;-71
2022/06/21 01:18:54;;;;;;;15.30;8.38;;;;;;;9.60;100.00;101660.47;5213850;28;20108;-71
2022/06/21 01:21:29;;;;;;;14.82;8.52;;;;;;;9.51;100.00;101650.59;5220710;28;20026;-71
2022/06/21 01:24:34;;;;;;;21.73;9.05;;;;;;;9.44;100.00;101649.47;5211451;28;20033;-71
2022/06/21 01:27:24;;;;;;;20.08;8.45;;;;;;;9.37;100.00;101651.00;5222933;28;20080;-72
2022/06/21 01:29:59;;;;;;;20.52;9.25;;;;;;;9.34;100.00;101653.97;5222853;28;20052;-70
2022/06/21 01:32:30;;;;;;;20.02;10.10;;;;;;;9.28;100.00;101655.34;5220935;28;20441;-72
2022/06/21 01:35:07;;;;;;;23.17;9.80;;;;;;;9.23;100.00;101659.44;5218816;28;20032;-71
2022/06/21 01:37:38;;;;;;;21.77;9.18;;;;;;;9.19;100.00;101656.19;5217696;28;20022;-71
2022/06/21 01:40:12;;;;;;;19.33;9.95;;;;;;;9.15;100.00;101651.25;5210935;28;20025;-71
2022/06/21 01:42:49;;;;;;;16.50;8.48;;;;;;;9.14;100.00;101639.69;5219571;28;20029;-70
2022/06/21 01:45:27;;;;;;;18.70;9.20;;;;;;;9.17;100.00;101635.88;5221800;28;20550;-70
2022/06/21 01:48:03;;;;;;;20.23;10.27;;;;;;;9.18;100.00;101632.22;5215251;28;20025;-71
2022/06/21 01:50:36;;;;;;;24.98;9.57;;;;;;;9.18;100.00;101622.34;5213364;28;20032;-71
2022/06/21 01:53:09;;;;;;;19.27;8.90;;;;;;;9.20;100.00;101619.56;5213399;28;20038;-73
2022/06/21 01:56:00;;;;;;;19.17;9.20;;;;;;;9.19;100.00;101623.22;5211177;28;20075;-72
2022/06/21 01:58:35;;;;;;;15.30;9.32;;;;;;;9.20;100.00;101619.56;5222549;28;20093;-71
2022/06/21 02:01:15;;;;;;;20.02;9.95;;;;;;;9.23;100.00;101625.47;5220102;28;20034;-71
2022/06/21 02:03:51;;;;;;;22.08;9.77;;;;;;;9.26;100.00;101625.19;5223978;28;20138;-71
2022/06/21 02:06:26;;;;;;;20.98;10.20;;;;;;;9.26;100.00;101619.84;5220768;28;20024;-70
2022/06/21 02:09:03;;;;;;;30.95;12.35;;;;;;;9.26;100.00;101610.97;5221613;28;20463;-70
2022/06/21 02:11:40;;;;;;;19.17;9.40;;;;;;;9.23;100.00;101603.19;5223117;28;20033;-70
2022/06/21 02:14:29;;;;;;;17.20;8.35;;;;;;;9.15;100.00;101609.25;5219984;28;20025;-70
2022/06/21 02:17:06;;;;;;;22.00;10.27;;;;;;;9.07;100.00;101617.97;5222506;28;20025;-71
2022/06/21 02:19:43;;;;;;;17.33;9.63;;;;;;;9.00;100.00;101619.50;5222300;28;20048;-70
2022/06/21 02:22:32;;;;;;;22.85;9.88;;;;;;;8.98;100.00;101605.41;5219578;28;20549;-71
2022/06/21 02:25:03;;;;;;;20.15;9.70;;;;;;;8.96;100.00;101610.06;5216837;28;20067;-71
2022/06/21 02:27:35;;;;;;;13.93;8.57;;;;;;;8.85;100.00;101604.81;5214571;28;20060;-72
2022/06/21 02:30:14;;;;;;;12.98;7.72;;;;;;;8.71;100.00;101614.06;5210251;28;20030;-72
2022/06/21 02:32:46;;;;;;;16.73;7.90;;;;;;;8.64;100.00;101614.75;5214840;28;20522;-71
2022/06/21 02:35:22;;;;;;;19.08;9.00;;;;;;;8.60;100.00;101613.34;5210773;28;20083;-72
2022/06/21 02:37:56;;;;;;;19.83;8.85;;;;;;;8.56;100.00;101616.25;5213011;28;20365;-72
2022/06/21 02:40:32;;;;;;;17.13;8.43;;;;;;;8.54;100.00;101615.56;5218677;28;20029;-72
2022/06/21 02:43:09;;;;;;;16.63;9.10;;;;;;;8.54;100.00;101615.56;5211607;28;20029;-71
2022/06/21 02:45:48;;;;;;;16.60;8.60;;;;;;;8.52;100.00;101616.66;5213658;28;20060;-72
2022/06/21 02:48:27;;;;;;;19.42;9.02;;;;;;;8.50;100.00;101610.63;5215140;28;20025;-73
2022/06/21 02:51:05;;;;;;;19.38;10.38;;;;;;;8.50;100.00;101603.44;5211504;28;20042;-72
2022/06/21 02:53:42;;;;;;;19.63;9.63;;;;;;;8.45;100.00;101624.38;5214555;28;20372;-71
2022/06/21 02:56:22;;;;;;;16.95;8.60;;;;;;;8.35;100.00;101617.28;5209553;28;20136;-72
2022/06/21 02:58:57;;;;;;;19.45;10.05;;;;;;;8.28;100.00;101615.13;5213454;28;20021;-72
2022/06/21 03:01:30;;;;;;;;;;;;;;;8.27;100.00;101610.75;5222805;28;20058;-72
2022/06/21 03:04:01;;;;;;;15.65;7.78;;;;;;;8.21;100.00;101594.41;5218254;28;19989;-71
2022/06/21 03:06:33;;;;;;;18.05;9.20;;;;;;;8.14;100.00;101594.09;5221389;28;20127;-72
2022/06/21 03:09:07;;;;;;;24.67;10.70;;;;;;;8.12;100.00;101597.84;5218440;28;20033;-71
2022/06/21 03:11:45;;;;;;;19.45;9.65;;;;;;;8.09;100.00;101600.81;5209935;28;20021;-71
2022/06/21 03:14:18;;;;;;;25.48;9.45;;;;;;;8.09;100.00;101595.47;5209445;28;20026;-71
2022/06/21 03:16:50;;;;;;;25.77;11.95;;;;;;;8.10;100.00;101586.47;5211336;28;20032;-71
2022/06/21 03:19:38;;;;;;;20.30;11.10;;;;;;;8.13;100.00;101581.69;5208499;28;20026;-72
2022/06/21 03:22:29;;;;;;;26.52;11.35;;;;;;;8.13;100.00;101570.16;5219352;28;20058;-72
2022/06/21 03:25:05;;;;;;;26.02;13.05;;;;;;;8.13;100.00;101565.66;5217794;28;20479;-72
2022/06/21 03:27:49;;;;;;;34.15;13.43;;;;;;;8.20;100.00;101568.66;5214966;28;20056;-72
2022/06/21 03:30:24;;;;;;;28.45;12.38;;;;;;;8.26;100.00;101568.13;5214625;28;20033;-71
2022/06/21 03:32:56;;;;;;;24.70;11.77;;;;;;;8.27;100.00;101569.81;5219268;28;20082;-71
2022/06/21 03:35:31;;;;;;;36.88;11.80;;;;;;;8.26;100.00;101576.97;5212531;28;20026;-71
2022/06/21 03:38:02;;;;;;;37.20;15.13;;;;;;;8.28;100.00;101568.81;5218175;28;20090;-71
2022/06/21 03:43:31;;;;;;;27.45;12.05;;;;;;;8.41;100.00;101566.81;5213679;28;20029;-71
2022/06/21 03:46:08;;;;;;;26.77;11.23;;;;;;;8.42;100.00;101571.16;5209725;28;20360;-72
2022/06/21 03:49:00;;;;;;;22.40;10.40;;;;;;;8.38;100.00;101575.09;5214542;28;20039;-71
2022/06/21 03:51:36;;;;;;;22.15;11.05;;;;;;;8.35;100.00;101572.66;5211430;28;20063;-71
2022/06/21 03:54:12;;;;;;;23.25;12.00;;;;;;;8.37;100.00;101573.38;5211612;28;20025;-72
2022/06/21 03:56:51;;;;;;;21.17;11.15;;;;;;;8.42;100.00;101573.84;5208250;28;20489;-71
2022/06/21 03:59:41;;;;;;;22.50;11.07;;;;;;;8.47;100.00;101576.94;5205656;28;20044;-73
2022/06/21 04:02:15;;;;;;;26.10;11.55;;;;;;;8.53;100.00;101579.13;5205483;28;20037;-71
2022/06/21 04:05:09;;;;;;;25.30;11.43;;;;;;;8.58;100.00;101565.31;5205684;28;20393;-71
2022/06/21 04:07:46;;;;;;;31.85;13.65;;;;;;;8.64;100.00;101564.78;5204344;28;20108;-72
2022/06/21 04:10:41;;;;;;;36.58;14.05;;;;;;;8.72;100.00;101559.56;5223504;28;20422;-72
2022/06/21 04:13:34;;;;;;;31.75;13.15;;;;;;;8.81;100.00;101553.41;5206377;28;20139;-72
2022/06/21 04:16:17;;;;;;;29.38;12.18;;;;;;;8.89;100.00;101544.72;5206058;28;20064;-72
2022/06/21 04:19:09;;;;;;;25.88;12.05;;;;;;;8.91;100.00;101547.25;5205326;28;20026;-72
2022/06/21 04:21:59;;;;;;;20.48;11.85;;;;;;;8.93;100.00;101539.91;5211532;28;20025;-72
2022/06/21 04:24:41;;;;;;;27.15;14.68;;;;;;;9.00;100.00;101541.91;5204730;28;20021;-72
2022/06/21 04:27:16;;;;;;;37.75;14.77;;;;;;;9.11;100.00;101537.41;5205390;28;20017;-72
2022/06/21 04:30:07;;;;;;;27.95;13.95;;;;;;;9.18;100.00;101541.19;5222329;28;20032;-71
2022/06/21 04:32:59;;;;;;;34.00;14.18;;;;;;;9.23;100.00;101555.00;5206717;28;20036;-72
2022/06/21 04:35:35;;;;;;;31.65;16.08;;;;;;;9.31;100.00;101564.03;5208789;28;20029;-71
2022/06/21 04:38:35;;;;;;;39.03;16.20;;;;;;;9.43;100.00;101562.06;5205631;28;20024;-71
2022/06/21 04:41:26;;;;;;;35.28;15.77;;;;;;;9.58;100.00;101549.91;5210003;28;20026;-71
2022/06/21 04:44:04;;;;;;;39.40;16.48;;;;;;;9.73;100.00;101553.00;5221504;28;20033;-71
2022/06/21 04:46:42;;;;;;;30.98;15.07;;;;;;;9.89;100.00;101554.25;5218855;28;20029;-72
2022/06/21 04:49:19;;;;;;;35.08;15.05;;;;;;;10.00;100.00;101562.13;5225948;28;20057;-71
2022/06/21 04:51:57;;;;;;;33.10;15.77;;;;;;;10.09;100.00;101564.78;5224369;28;20490;-72
2022/06/21 04:54:30;;;;;;;30.65;14.77;;;;;;;10.18;100.00;101568.41;5226450;28;20104;-71
2022/06/21 04:57:21;;;;;;;32.92;13.63;;;;;;;10.27;100.00;101569.41;5223744;28;20025;-72
2022/06/21 04:59:56;;;;;;;29.83;14.32;;;;;;;10.35;100.00;101570.38;5228451;28;20029;-72
2022/06/21 05:02:30;;;;;;;30.40;14.25;;;;;;;10.43;100.00;101576.84;5219530;28;20071;-71
2022/06/21 05:05:18;;;;;;;28.40;15.40;;;;;;;10.50;100.00;101576.09;5223922;28;20445;-72
2022/06/21 05:07:54;;;;;;;26.08;14.68;;;;;;;10.55;100.00;101565.78;5228346;28;20051;-72
2022/06/21 05:10:29;;;;;;;28.38;13.48;;;;;;;10.63;100.00;101568.53;5215416;28;20048;-72
2022/06/21 05:13:04;;;;;;;31.92;15.65;;;;;;;10.70;100.00;101573.34;5209779;28;20422;-72
2022/06/21 05:15:37;;;;;;;;;;;;;;;10.78;100.00;101585.00;5217690;28;20483;-72
2022/06/21 05:18:14;;;;;;;28.13;14.18;;;;;;;10.86;100.00;101581.56;5225182;28;20016;-72
2022/06/21 05:20:50;;;;;;;27.20;14.98;;;;;;;10.97;100.00;101589.41;5215486;28;20030;-72
2022/06/21 05:23:23;;;;;;;29.85;15.63;;;;;;;11.06;100.00;101585.81;5220733;28;20026;-72
2022/06/21 05:25:58;;;;;;;32.28;16.17;;;;;;;11.16;100.00;101585.75;5221811;28;20100;-72
2022/06/21 05:28:38;;;;;;;31.20;16.02;;;;;;;11.33;100.00;101590.28;5226631;28;20043;-72
2022/06/21 05:31:14;;;;;;;36.30;14.98;;;;;;;11.45;100.00;101582.88;5225115;28;20029;-71
2022/06/21 05:33:49;;;;;;;26.95;13.95;;;;;;;11.61;100.00;101556.13;5225841;28;20107;-71
2022/06/21 05:36:31;;;;;;;28.70;14.30;;;;;;;11.80;100.00;101559.63;5214055;28;20047;-70
2022/06/21 05:39:12;;;;;;;28.77;14.50;;;;;;;12.00;100.00;101554.91;5225197;28;20075;-71
2022/06/21 05:41:45;;;;;;;28.65;13.50;;;;;;;12.19;100.00;101563.59;5213925;28;20024;-70
2022/06/21 05:44:35;;;;;;;25.73;13.40;;;;;;;12.42;100.00;101555.81;5224949;28;20024;-70
2022/06/21 05:47:15;;;;;;;28.80;12.48;;;;;;;12.66;100.00;101547.03;5224880;28;20034;-70
2022/06/21 05:49:47;;;;;;;28.92;11.88;;;;;;;12.91;100.00;101561.41;5226504;28;20028;-70
2022/06/21 05:52:36;;;;;;;25.17;11.13;;;;;;;13.21;100.00;101559.09;5212005;28;20029;-70
2022/06/21 05:55:14;;;;;;;22.55;11.27;;;;;;;13.52;100.00;101567.41;5198944;28;20033;-70
2022/06/21 05:57:49;;;;;;;22.63;11.32;;;;;;;13.85;100.00;101564.69;5202298;28;20013;-70
2022/06/21 06:00:54;;;;;;;22.00;9.93;;;;;;;14.25;100.00;101566.47;5205278;28;20052;-70
2022/06/21 06:03:44;;;;;;;21.05;10.60;;;;;;;14.85;100.00;101563.22;5205661;28;20048;-71
2022/06/21 06:06:20;;;;;;;18.17;8.70;;;;;;;15.68;100.00;101561.69;5205007;28;20055;-70
2022/06/21 06:08:58;;;;;;;21.40;9.48;;;;;;;15.93;100.00;101570.44;5205023;28;20160;-71
2022/06/21 06:14:52;;;;;;;22.70;8.57;;;;;;;16.72;100.00;101573.47;5210691;28;20072;-71
2022/06/21 06:17:33;;;;;;;18.50;7.63;;;;;;;16.74;100.00;101566.81;5215277;28;20046;-71
2022/06/21 06:20:11;;;;;;;21.30;8.00;;;;;;;16.92;100.00;101561.00;5203214;28;20022;-71
2022/06/21 06:22:48;;;;;;;16.95;7.85;;;;;;;17.13;100.00;101571.03;5203145;28;20064;-72
2022/06/21 06:25:42;;;;;;;13.23;7.45;;;;;;;17.25;100.00;101577.63;5203902;28;20026;-71
2022/06/21 06:28:31;;;;;;;17.92;8.15;;;;;;;17.04;100.00;101575.72;5202946;28;20026;-71
2022/06/21 06:31:11;;;;;;;18.40;8.07;;;;;;;17.02;100.00;101585.94;5216792;28;20041;-72
2022/06/21 06:33:46;;;;;;;19.67;8.50;;;;;;;17.04;100.00;101596.59;5205574;28;20099;-70
2022/06/21 06:36:22;;;;;;;17.00;8.40;;;;;;;17.14;100.00;101604.41;5215691;28;20052;-72
2022/06/21 06:38:53;;;;;;;21.15;8.35;;;;;;;17.29;100.00;101597.91;5206169;28;20021;-71
2022/06/21 06:41:50;;;;;;;13.65;7.55;;;;;;;17.51;100.00;101612.31;5213263;28;20107;-71
2022/06/21 06:44:21;;;;;;;18.13;7.28;;;;;;;18.02;100.00;101620.34;5216048;28;20022;-71
2022/06/21 06:46:52;;;;;;;12.85;7.30;;;;;;;18.79;100.00;101622.13;5210021;28;20048;-71
2022/06/21 06:49:30;;;;;;;19.35;7.22;;;;;;;19.25;100.00;101626.06;5203965;28;20056;-71
2022/06/21 06:52:20;;;;;;;16.77;7.20;;;;;;;19.48;100.00;101623.84;5205375;28;20036;-71
2022/06/21 06:55:15;;;;;;;15.25;7.18;;;;;;;19.60;100.00;101618.63;5203902;28;20021;-71
2022/06/21 06:57:51;;;;;;;13.15;6.95;;;;;;;19.81;100.00;101621.16;5202496;28;20022;-71
2022/06/21 07:00:27;;;;;;;15.82;7.13;;;;;;;19.74;100.00;101616.78;5203484;28;20022;-71
2022/06/21 07:03:19;;;;;;;17.95;6.95;;;;;;;19.65;100.00;101613.41;5203403;28;20021;-71
2022/06/21 07:06:24;;;;;;;13.23;7.03;;;;;;;19.59;100.00;101606.91;5201825;28;20036;-71
2022/06/21 07:09:31;;;;;;;15.52;6.57;;;;;;;19.60;100.00;101607.75;5203487;28;20037;-71
2022/06/21 07:12:33;;;;;;;14.18;6.90;;;;;;;19.49;100.00;101601.00;5202840;28;20491;-72
2022/06/21 07:15:04;;;;;;;17.00;7.95;;;;;;;19.88;100.00;101591.22;5202656;28;20250;-71
2022/06/21 07:17:54;;;;;;;12.85;6.63;;;;;;;20.10;100.00;101592.69;5203093;28;20021;-71
2022/06/21 07:20:47;;;;;;;10.90;7.10;;;;;;;20.29;100.00;101593.72;5202736;28;20556;-72
2022/06/21 07:23:21;;;;;;;12.30;6.35;;;;;;;20.84;100.00;101591.47;5203188;28;20029;-72
2022/06/21 07:25:58;;;;;;;14.65;6.80;;;;;;;20.52;100.00;101581.50;5202497;28;20032;-72
2022/06/21 07:28:45;;;;;;;13.80;6.88;;;;;;;20.25;100.00;101576.09;5208780;28;20031;-71
2022/06/21 07:31:39;;;;;;;12.32;7.10;;;;;;;20.12;100.00;101573.38;5216378;28;20033;-71
2022/06/21 07:34:17;;;;;;;14.70;6.30;;;;;;;19.55;100.00;101567.53;5216182;28;20483;-72
2022/06/21 07:36:55;;;;;;;16.17;6.75;;;;;;;19.58;100.00;101567.13;5212610;28;20543;-71
2022/06/21 07:39:36;;;;;;;13.43;6.40;;;;;;;20.09;100.00;101562.94;5216442;28;20096;-72
2022/06/21 07:42:13;;;;;;;12.20;6.28;;;;;;;20.08;100.00;101558.50;5205813;28;20021;-71
2022/06/21 07:45:14;;;;;;;13.85;6.72;;;;;;;19.89;100.00;101547.47;5201075;28;20053;-72
2022/06/21 07:48:04;;;;;;;14.55;6.40;;;;;;;19.55;100.00;101562.06;5215052;28;20536;-71
2022/06/21 07:50:43;;;;;;;18.23;7.25;;;;;;;19.82;100.00;101553.94;5214871;28;20387;-71
2022/06/21 07:53:23;;;;;;;12.13;6.85;;;;;;;19.77;100.00;101554.56;5218472;28;20025;-71
2022/06/21 07:56:01;;;;;;;14.40;6.50;;;;;;;20.14;100.00;101558.53;5214902;28;20028;-71
2022/06/21 07:58:39;;;;;;;17.90;7.18;;;;;;;20.41;100.00;101548.38;5208698;28;20501;-72
2022/06/21 08:07:13;;;;;;;15.55;6.75;;;;;;;19.74;100.00;101526.94;5205878;28;20025;-72
2022/06/21 08:10:02;;;;;;;20.73;6.95;;;;;;;19.56;100.00;101528.38;5201987;28;20375;-71
2022/06/21 08:12:33;;;;;;;13.23;6.78;;;;;;;19.55;100.00;101523.16;5204844;28;20033;-72
2022/06/21 08:15:04;;;;;;;16.92;7.30;;;;;;;19.77;100.00;101516.44;5215747;28;20021;-71
2022/06/21 08:17:57;;;;;;;12.95;5.75;;;;;;;20.21;100.00;101508.63;5203540;28;20052;-71
2022/06/21 08:20:38;;;;;;;11.10;6.35;;;;;;;20.55;100.00;101510.22;5216875;28;20406;-71
2022/06/21 08:23:45;;;;;;;15.70;6.28;;;;;;;21.15;100.00;101497.09;5203980;28;20159;-71
2022/06/21 08:26:32;;;;;;;12.95;6.65;;;;;;;21.71;100.00;101486.16;5202694;28;20036;-71
2022/06/21 08:29:28;;;;;;;15.60;5.78;;;;;;;22.09;99.95;101500.69;5201375;28;20080;-72
2022/06/21 08:32:02;;;;;;;;;;;;;;;22.62;100.00;101490.00;5205441;28;20545;-72
2022/06/21 08:34:42;;;;;;;13.60;4.65;;;;;;;23.41;91.90;101485.28;5203620;28;20447;-72
2022/06/21 08:37:15;;;;;;;12.93;6.07;;;;;;;23.95;92.12;101483.31;5202794;28;20491;-72
2022/06/21 08:40:10;;;;;;;16.10;5.55;;;;;;;23.64;82.12;101481.75;5205771;28;20021;-72
2022/06/21 08:43:08;;;;;;;13.33;6.13;;;;;;;23.28;81.34;101488.22;5214846;28;20021;-72
2022/06/21 08:45:59;;;;;;;10.07;5.75;;;;;;;22.63;84.35;101482.63;5202458;28;20025;-71
2022/06/21 08:49:02;;;;;;;11.75;5.70;;;;;;;22.10;88.35;101470.44;5213193;28;20121;-72
2022/06/21 08:51:48;;;;;;;8.77;5.53;;;;;;;21.53;91.94;101463.44;5203682;28;20483;-71
2022/06/21 08:54:54;;;;;;;15.65;5.70;;;;;;;21.24;93.05;101463.03;5214662;28;20037;-72
2022/06/21 08:57:44;;;;;;;12.57;5.43;;;;;;;21.05;95.19;101451.22;5201779;28;20025;-71
2022/06/21 09:00:35;;;;;;;13.38;5.72;;;;;;;20.71;89.71;101451.66;5212840;28;20032;-72
2022/06/21 09:03:13;;;;;;;11.77;5.43;;;;;;;20.42;91.37;101446.50;5221143;28;20379;-72
2022/06/21 09:06:21;;;;;;;16.48;5.82;;;;;;;20.26;98.68;101448.88;5219775;28;20107;-72
2022/06/21 09:09:29;;;;;;;12.50;5.20;;;;;;;20.03;100.00;101452.09;5206825;28;20474;-72
2022/06/21 09:12:14;;;;;;;10.93;5.43;;;;;;;19.82;100.00;101443.16;5211251;28;20119;-71
2022/06/21 09:15:03;;;;;;;13.18;5.80;;;;;;;19.70;100.00;101436.69;5220940;28;20054;-71
2022/06/21 09:18:06;;;;;;;16.20;6.18;;;;;;;19.54;100.00;101451.56;5220602;28;20033;-71
2022/06/21 09:20:48;;;;;;;10.30;5.45;;;;;;;19.61;100.00;101446.13;5220575;28;20033;-72
2022/06/21 09:23:28;;;;;;;13.10;5.28;;;;;;;19.74;100.00;101451.56;5219994;28;20041;-71
2022/06/21 09:26:09;;;;;;;10.02;5.10;;;;;;;19.77;100.00;101455.72;5220565;28;20053;-71
2022/06/21 09:28:46;;;;;;;19.33;6.30;;;;;;;19.83;100.00;101450.28;5222279;28;20025;-71
2022/06/21 09:31:21;;;;;;;11.77;5.10;;;;;;;19.83;100.00;101454.88;5212636;28;20051;-72
2022/06/21 09:33:59;;;;;;;15.20;6.30;;;;;;;19.78;100.00;101455.53;5215611;28;20036;-71
2022/06/21 09:36:45;;;;;;;12.88;5.63;;;;;;;19.82;100.00;101455.94;5204633;28;20498;-71
2022/06/21 09:39:40;;;;;;;12.75;6.07;;;;;;;19.75;100.00;101466.00;5206144;28;20424;-72
2022/06/21 09:42:19;;;;;;;10.05;5.70;;;;;;;19.87;100.00;101458.84;5205176;28;20021;-71
2022/06/21 09:45:14;;;;;;;11.38;5.80;;;;;;;20.01;100.00;101467.84;5217170;28;20025;-71
2022/06/21 09:48:13;;;;;;;12.95;4.82;;;;;;;20.31;100.00;101468.16;5214157;28;20029;-72
2022/06/21 09:51:05;;;;;;;14.05;5.07;;;;;;;20.28;100.00;101463.97;5204996;28;20035;-72
2022/06/21 09:54:08;;;;;;;13.77;4.75;;;;;;;20.43;96.68;101460.97;5205387;28;20033;-71
2022/06/21 09:57:12;;;;;;;13.18;4.53;;;;;;;20.60;94.67;101461.34;5204945;28;20018;-72
2022/06/21 10:00:18;;;;;;;7.43;4.15;;;;;;;20.76;98.38;101463.56;5205366;28;20450;-71
2022/06/21 10:03:26;;;;;;;9.98;4.82;;;;;;;20.85;89.63;101470.44;5212552;28;20447;-71
2022/06/21 10:06:06;;;;;;;17.23;5.60;;;;;;;20.97;91.08;101465.09;5220033;28;20188;-72
2022/06/21 10:09:14;;;;;;;15.70;5.45;;;;;;;21.01;87.76;101466.34;5218639;28;20119;-71
2022/06/21 10:12:03;;;;;;;11.88;5.00;;;;;;;20.82;94.30;101468.13;5212092;28;20029;-72
2022/06/21 10:14:50;;;;;;;11.25;4.57;;;;;;;20.95;95.54;101462.59;5213345;28;20084;-71
2022/06/21 10:17:38;;;;;;;9.07;4.75;;;;;;;21.01;93.14;101470.97;5211253;28;20021;-71
2022/06/21 10:20:09;;;;;;;12.45;5.15;;;;;;;20.82;89.26;101459.94;5218339;28;20021;-72
2022/06/21 10:23:16;;;;;;;16.67;4.95;;;;;;;21.03;94.14;101456.03;5214956;28;20505;-71
2022/06/21 10:26:03;;;;;;;8.57;5.20;;;;;;;21.14;93.25;101459.97;5210386;28;20033;-71
2022/06/21 10:29:08;;;;;;;12.15;4.55;;;;;;;21.33;100.00;101453.53;5219963;28;20018;-71
2022/06/21 10:31:57;;;;;;;9.35;4.43;;;;;;;21.29;91.46;101452.28;5211593;28;20037;-71
2022/06/21 10:34:55;;;;;;;14.32;5.13;;;;;;;21.19;87.52;101468.31;5207309;28;20052;-71
2022/06/21 10:37:32;;;;;;;15.00;4.72;;;;;;;20.94;87.73;101460.94;5220830;28;20271;-71
2022/06/21 10:40:21;;;;;;;8.85;4.68;;;;;;;20.77;87.44;101453.50;5209820;28;20367;-71
2022/06/21 10:43:26;;;;;;;8.23;4.43;;;;;;;20.75;92.69;101448.25;5217179;28;20047;-71
2022/06/21 10:46:00;;;;;;;12.77;4.43;;;;;;;20.71;91.90;101451.66;5204868;28;20417;-72
2022/06/21 10:48:51;;;;;;;7.78;3.63;;;;;;;20.60;88.69;101453.16;5208721;28;20035;-71
2022/06/21 10:51:47;;;;;;;11.60;4.43;;;;;;;20.37;86.33;101449.03;5204387;28;20072;-72
2022/06/21 10:54:51;;;;;;;6.65;4.72;;;;;;;20.22;88.14;101455.81;5204161;28;20022;-72
2022/06/21 10:57:53;;;;;;;8.52;3.70;;;;;;;20.17;87.98;101459.19;5215705;28;20033;-71
2022/06/21 11:03:56;;;;;;;9.93;3.70;;;;;;;20.24;84.22;101445.56;5210269;28;20060;-72
2022/06/21 11:07:06;;;;;;;17.00;4.28;;;;;;;20.36;88.64;101452.81;5220252;28;20029;-71
2022/06/21 11:09:43;;;;;;;11.85;3.83;;;;;;;20.44;87.88;101449.88;5207664;28;20036;-72
2022/06/21 11:15:33;;;;;;;8.80;3.70;;;;;;;20.26;86.15;101444.28;5218722;28;20100;-71
2022/06/21 11:18:33;;;;;;;9.85;4.07;;;;;;;20.23;85.31;101450.19;5212109;28;20103;-72
2022/06/21 11:21:27;;;;;;;10.02;3.58;;;;;;;20.17;85.28;101448.28;5209388;28;20349;-72
2022/06/21 11:24:16;;;;;;;8.98;4.28;;;;;;;20.17;87.47;101443.66;5206682;28;20029;-71
2022/06/21 11:26:59;;;;;;;9.10;3.83;;;;;;;20.17;89.10;101437.38;5217224;28;20486;-71
2022/06/21 11:29:29;;;;;;;6.53;3.95;;;;;;;20.22;90.27;101448.47;5208707;28;20063;-71
2022/06/21 11:32:37;;;;;;;6.50;4.32;;;;;;;20.14;90.98;101433.22;5211390;28;20395;-71
2022/06/21 11:35:30;;;;;;;11.25;4.82;;;;;;;20.07;91.72;101426.13;5216606;28;20040;-71
2022/06/21 11:38:33;;;;;;;11.68;3.83;;;;;;;20.06;91.63;101429.91;5216382;28;20021;-71
2022/06/21 11:41:12;;;;;;;9.20;4.05;;;;;;;20.14;93.23;101435.13;5208901;28;20036;-71
2022/06/21 11:44:05;;;;;;;12.00;4.60;;;;;;;20.27;94.48;101428.75;5215682;28;20107;-71
2022/06/21 11:46:45;;;;;;;11.63;5.00;;;;;;;20.40;93.57;101435.00;5218593;28;20087;-71
2022/06/21 11:49:25;;;;;;;10.48;4.35;;;;;;;20.46;91.29;101438.75;5215103;28;20495;-71
2022/06/21 11:52:28;;;;;;;13.73;5.18;;;;;;;20.62;96.77;101432.81;5211955;28;20060;-71
2022/06/21 11:55:22;;;;;;;11.77;4.63;;;;;;;20.61;93.03;101427.59;5214351;28;20017;-71
2022/06/21 11:57:56;;;;;;;10.75;4.13;;;;;;;20.47;90.87;101431.44;5217821;28;20037;-71
2022/06/21 12:00:35;;;;;;;14.65;4.97;;;;;;;20.43;93.60;101426.41;5217009;28;20091;-71
2022/06/21 12:03:15;;;;;;;12.18;5.00;;;;;;;20.40;96.23;101431.44;5206436;28;20400;-71
2022/06/21 12:06:02;;;;;;;17.00;4.95;;;;;;;20.35;99.28;101421.19;5209750;28;20394;-71
2022/06/21 12:08:52;;;;;;;14.38;4.78;;;;;;;20.30;100.00;101417.44;5206708;28;20025;-71
2022/06/21 12:12:00;;;;;;;13.95;5.20;;;;;;;20.26;97.50;101413.47;5204607;28;20052;-71
2022/06/21 12:14:55;;;;;;;11.35;4.75;;;;;;;20.13;99.73;101404.31;5215508;28;20033;-71
2022/06/21 12:17:51;;;;;;;9.60;4.75;;;;;;;20.09;99.24;101408.53;5210506;28;20021;-70
2022/06/21 12:20:41;;;;;;;13.63;5.07;;;;;;;20.05;99.85;101411.88;5209476;28;20029;-71
2022/06/21 12:23:46;;;;;;;13.00;5.55;;;;;;;20.01;100.00;101411.47;5206611;28;20037;-71
2022/06/21 12:26:21;;;;;;;14.80;4.80;;;;;;;20.03;100.00;101408.53;5206616;28;20025;-71
2022/06/21 12:28:55;;;;;;;15.93;4.43;;;;;;;20.01;100.00;101410.63;5210134;28;20402;-71
2022/06/21 12:31:47;;;;;;;11.50;4.82;;;;;;;20.01;100.00;101408.75;5206661;28;20123;-70
2022/06/21 12:34:55;;;;;;;8.43;4.75;;;;;;;19.99;100.00;101405.41;5215801;28;20036;-70
2022/06/21 12:37:44;;;;;;;21.10;4.43;;;;;;;19.90;100.00;101402.09;5207041;28;20040;-71
2022/06/21 12:40:33;;;;;;;15.50;4.22;;;;;;;19.73;98.27;101400.91;5207335;28;20037;-70
2022/06/21 12:43:41;;;;;;;25.65;5.10;;;;;;;19.56;100.00;101407.78;5215252;28;20098;-70